Date,TemperatureHighF,TemperatureAvgF,TemperatureLowF,DewpointHighF,DewpointAvgF,DewpointLowF,HumidityHigh,HumidityAvg,HumidityLow,PressureMaxIn,PressureMinIn,WindSpeedMaxMPH,WindSpeedAvgMPH,GustSpeedMaxMPH,PrecipitationSumIn
2013-1-1,78.0,62.2,50.0,62.0,56.2,49.0,95,83,55,30.20,30.01,4,1,11,0.00
2013-1-2,81.0,66.3,54.0,69.0,60.9,52.0,95,84,61,30.04,29.95,3,0,9,0.00
2013-1-3,71.0,63.1,58.0,66.0,60.5,56.0,94,92,84,30.16,30.01,4,0,10,0.11
2013-1-4,60.0,57.0,54.0,58.0,55.2,52.0,95,94,94,30.26,30.13,2,1,9,0.49
2013-1-5,74.0,62.0,54.0,64.0,57.5,52.0,95,86,69,30.28,30.16,3,1,8,0.02
2013-1-6,82.0,67.6,60.0,70.0,62.9,58.0,94,86,63,30.19,30.03,2,0,7,0.10
2013-1-7,71.0,62.9,55.0,62.0,58.5,52.0,94,86,66,30.20,30.10,3,1,10,0.10
2013-1-8,80.0,70.3,63.0,71.0,66.5,61.0,94,88,71,30.20,30.10,2,0,6,0.01
2013-1-9,69.0,65.8,64.0,67.0,63.8,62.0,94,94,93,30.18,30.17,0,0,1,0.00
2013-1-18,66.0,61.1,47.0,59.0,54.4,42.0,92,79,71,30.25,30.19,6,3,16,0.05
2013-1-19,74.0,64.4,56.0,62.0,58.5,53.0,91,82,67,30.27,30.12,5,2,13,0.05
2013-1-20,72.0,63.0,57.0,65.0,58.7,53.0,94,87,71,30.16,30.03,3,1,9,0.01
2013-1-21,75.0,64.7,59.0,63.0,58.8,56.0,92,82,64,30.07,29.97,2,0,6,0.00
2013-1-29,72.0,69.7,68.0,67.0,65.6,65.0,90,87,82,30.11,30.08,1,0,4,0.00
2013-1-30,84.0,73.2,63.0,67.0,64.5,61.0,94,76,52,30.09,29.85,6,2,17,0.00
2013-1-31,71.0,59.5,48.0,66.0,40.6,30.0,84,52,31,30.20,29.86,4,1,11,0.08
2013-2-1,72.0,52.2,38.0,41.0,35.5,28.0,90,60,20,30.32,30.19,2,0,9,0.01
2013-2-2,75.0,55.9,39.0,50.0,41.7,37.0,93,64,29,30.28,30.11,2,0,8,0.00
2013-2-3,73.0,54.9,39.0,52.0,43.6,37.0,95,69,35,30.16,30.02,3,1,11,0.00
2013-2-4,74.0,54.3,39.0,49.0,41.1,37.0,94,67,28,30.12,30.01,2,0,8,0.00
2013-2-5,78.0,58.8,40.0,55.0,48.4,39.0,95,73,40,30.08,29.97,2,0,9,0.00
2013-2-6,79.0,66.2,56.0,65.0,59.8,53.0,93,81,57,30.09,30.00,1,0,5,0.00
2013-2-7,82.0,71.1,59.0,66.0,62.3,57.0,94,76,52,30.06,29.84,4,1,14,0.00
2013-2-8,83.0,70.1,58.0,66.0,60.3,54.0,92,74,43,30.05,29.83,3,1,12,0.00
2013-2-9,73.0,61.8,53.0,59.0,55.2,50.0,94,81,58,30.18,30.04,4,1,13,0.00
2013-2-10,76.0,63.7,51.0,62.0,56.2,49.0,94,79,55,30.25,30.15,4,1,11,0.00
2013-2-11,84.0,68.6,54.0,65.0,60.1,52.0,94,77,48,30.19,30.04,5,1,14,0.00
2013-2-12,85.0,72.6,60.0,69.0,63.8,58.0,94,76,49,30.07,29.89,4,1,12,0.00
2013-2-13,76.0,68.0,63.0,69.0,65.1,61.0,93,90,77,29.93,29.81,3,1,9,0.40
2013-2-14,68.0,62.1,56.0,65.0,59.2,54.0,94,90,77,30.01,29.88,2,0,7,0.61
2013-2-15,72.0,58.4,52.0,59.0,53.9,50.0,95,86,62,30.05,29.92,2,0,8,0.18
2013-2-16,71.0,56.8,48.0,53.0,44.4,28.0,95,67,34,30.09,29.86,4,2,15,0.01
2013-2-17,56.0,46.5,36.0,29.0,21.5,15.0,60,39,20,30.28,30.09,3,2,12,0.01
2013-2-18,52.0,49.5,48.0,46.0,45.4,45.0,90,86,80,30.23,30.19,0,0,0,0.00
2013-2-19,81.0,61.4,44.0,59.0,50.3,42.0,95,72,42,30.20,30.02,4,1,13,0.00
2013-2-20,77.0,63.1,56.0,61.0,55.9,53.0,94,78,55,30.11,29.99,3,1,8,0.00
2013-2-21,86.0,68.2,54.0,67.0,60.4,52.0,93,78,45,30.09,29.97,3,1,10,0.00
2013-2-22,88.0,72.2,61.0,71.0,66.0,59.0,94,82,49,30.06,29.96,3,1,11,0.00
2013-2-23,89.0,76.5,70.0,70.0,67.5,63.0,93,76,46,29.99,29.83,5,2,13,0.00
2013-2-24,77.0,69.4,64.0,73.0,67.0,62.0,94,92,84,29.94,29.83,2,0,7,0.85
2013-2-25,87.0,72.3,62.0,73.0,65.7,60.0,95,82,49,29.91,29.73,6,1,17,0.16
2013-2-26,78.0,71.0,63.0,72.0,67.7,60.0,93,89,80,29.83,29.70,5,1,14,0.40
2013-2-27,65.0,64.3,64.0,62.0,62.0,62.0,92,92,90,29.84,29.83,1,0,5,0.24
2013-3-1,66.0,59.9,52.0,42.0,39.4,35.0,66,48,37,29.97,29.87,3,2,9,0.00
2013-3-2,62.0,51.3,41.0,41.0,35.5,28.0,80,57,29,30.00,29.90,5,2,18,0.00
2013-3-3,56.0,44.6,35.0,36.0,32.3,30.0,84,63,42,30.13,29.96,4,2,18,0.00
2013-3-4,68.0,48.3,31.0,41.0,32.4,27.0,94,61,24,30.21,30.08,2,1,7,0.00
2013-3-5,79.0,59.6,38.0,57.0,43.0,36.0,95,61,28,30.16,29.97,3,1,13,0.00
2013-3-6,71.0,61.0,48.0,61.0,42.0,28.0,90,55,22,30.10,29.88,4,2,15,0.00
2013-3-7,70.0,52.8,40.0,49.0,40.7,33.0,93,66,38,30.19,30.09,2,1,8,0.00
2013-3-8,77.0,55.6,40.0,52.0,43.7,38.0,95,71,27,30.20,30.09,3,1,8,0.00
2013-3-9,75.0,58.7,43.0,54.0,49.4,41.0,94,74,44,30.20,30.11,4,1,10,0.00
2013-3-10,77.0,62.9,50.0,60.0,54.3,48.0,94,76,47,30.16,30.06,5,1,14,0.00
2013-3-11,80.0,65.4,50.0,63.0,56.8,48.0,94,76,50,30.09,29.89,2,1,13,0.00
2013-3-12,71.0,66.5,59.0,68.0,62.9,56.0,93,88,79,29.98,29.84,3,1,12,0.24
2013-3-13,76.0,60.2,49.0,56.0,44.9,35.0,94,64,24,30.13,29.97,3,1,10,0.01
2013-3-14,49.0,47.6,46.0,45.0,42.9,41.0,88,84,76,30.13,30.12,0,0,3,0.00
2013-3-17,79.0,72.6,67.0,60.0,56.9,54.0,77,59,43,30.03,29.96,2,1,8,0.00
2013-3-18,81.0,71.8,62.0,66.0,62.7,59.0,91,74,58,30.04,29.87,4,1,13,0.01
2013-3-19,89.0,73.2,63.0,66.0,62.4,58.0,93,72,36,29.99,29.85,3,1,8,0.01
2013-3-20,76.0,66.5,58.0,69.0,62.9,56.0,93,88,74,29.95,29.76,3,0,11,1.42
2013-3-21,74.0,59.0,48.0,56.0,43.4,30.0,94,64,23,29.91,29.82,2,0,7,0.69
2013-3-22,79.0,63.3,44.0,60.0,51.6,41.0,93,70,38,29.98,29.88,3,1,8,0.03
2013-3-23,88.0,71.4,62.0,77.0,66.5,60.0,93,85,58,29.96,29.73,4,1,11,0.47
2013-3-24,84.0,72.9,66.0,74.0,68.8,63.0,93,87,67,29.83,29.59,6,2,21,0.72
2013-3-25,75.0,66.1,53.0,67.0,48.1,32.0,93,59,22,29.99,29.67,3,2,11,0.02
2013-3-26,64.0,54.0,46.0,40.0,31.8,26.0,68,44,24,30.20,29.99,3,2,14,0.00
2013-3-27,66.0,51.5,40.0,43.0,34.7,31.0,88,56,28,30.28,30.17,3,1,8,0.00
2013-3-28,74.0,54.3,37.0,46.0,39.5,31.0,94,65,21,30.27,30.15,3,1,11,0.00
2013-3-29,76.0,57.6,41.0,52.0,41.5,37.0,94,62,24,30.30,30.16,4,1,10,0.00
2013-3-30,81.0,62.5,43.0,55.0,48.6,41.0,94,66,31,30.24,30.08,3,1,11,0.00
2013-3-31,83.0,70.1,59.0,59.0,53.8,-99.9,85,61,35,30.15,29.96,5,2,14,0.00
2013-4-1,88.0,72.3,59.0,67.0,61.1,56.0,92,71,43,30.00,29.88,3,1,12,0.00
2013-4-2,85.0,70.6,60.0,65.0,58.2,49.0,93,69,35,30.06,29.96,3,1,10,0.00
2013-4-3,83.0,69.9,57.0,68.0,62.4,55.0,94,79,55,30.06,29.94,3,1,11,0.17
2013-4-4,76.0,70.1,65.0,70.0,66.7,63.0,93,89,76,30.01,29.83,6,1,17,0.30
2013-4-5,78.0,67.5,58.0,69.0,63.1,55.0,93,86,68,29.96,29.77,3,1,11,0.10
2013-4-6,75.0,64.5,55.0,61.0,57.3,52.0,93,79,59,30.11,29.96,4,2,12,0.02
2013-4-7,79.0,67.2,56.0,63.0,59.1,54.0,94,78,51,30.14,30.02,4,1,11,0.00
2013-4-8,84.0,69.5,55.0,66.0,60.6,53.0,94,76,48,30.12,30.03,4,1,12,0.00
2013-4-9,83.0,71.6,61.0,69.0,62.4,56.0,94,75,48,30.15,30.05,5,1,14,0.00
2013-4-10,66.0,62.6,61.0,63.0,60.3,59.0,93,92,90,30.11,30.04,0,0,2,0.00
2013-4-12,85.0,79.1,73.0,72.0,70.2,69.0,88,75,65,29.86,29.79,2,0,9,0.00
2013-4-13,88.0,75.0,66.0,71.0,67.1,60.0,93,78,58,29.96,29.84,3,1,9,0.00
2013-4-14,84.0,73.5,66.0,75.0,68.4,62.0,93,84,73,29.96,29.80,4,1,10,3.05
2013-4-15,90.0,73.9,64.0,69.0,65.4,62.0,93,77,47,30.05,29.86,4,1,9,3.05
2013-4-16,85.0,74.9,67.0,73.0,68.3,65.0,93,81,62,30.13,30.03,5,2,11,0.00
2013-4-17,82.0,72.6,65.0,71.0,66.8,63.0,93,83,62,30.13,30.03,5,1,11,0.00
2013-4-18,89.0,75.9,63.0,72.0,67.4,61.0,94,77,48,30.05,29.93,3,1,10,0.00
2013-4-19,94.0,78.9,70.0,75.0,71.2,68.0,93,79,45,29.99,29.86,4,1,15,0.14
2013-4-20,74.0,67.2,60.0,71.0,63.1,57.0,93,87,78,30.13,29.93,3,1,10,0.06
2013-4-21,80.0,69.6,61.0,72.0,66.1,58.0,93,89,70,30.12,29.99,4,1,12,0.55
2013-4-22,78.0,69.4,65.0,71.0,66.1,63.0,94,90,71,30.05,29.97,4,1,12,0.21
2013-4-23,79.0,70.0,61.0,68.0,62.5,59.0,94,79,51,30.10,29.98,4,2,12,0.03
2013-4-24,86.0,70.4,56.0,66.0,61.5,54.0,95,76,47,30.12,30.04,3,1,10,0.01
2013-4-25,89.0,73.6,59.0,70.0,62.3,57.0,94,71,38,30.17,30.07,3,1,8,0.00
2013-4-26,87.0,74.3,62.0,69.0,65.4,60.0,93,76,51,30.22,30.12,4,1,10,0.00
2013-4-27,83.0,72.9,62.0,69.0,65.2,60.0,94,78,54,30.21,30.09,5,2,13,0.00
2013-4-28,81.0,72.8,65.0,70.0,64.3,-99.9,94,79,59,30.12,29.98,4,1,15,0.00
2013-4-29,89.0,74.9,63.0,71.0,65.1,61.0,93,74,44,30.00,29.87,4,1,11,2.50
2013-4-30,89.0,73.6,65.0,71.0,67.0,63.0,94,82,49,29.98,29.89,5,1,11,2.63
2013-5-1,79.0,71.8,66.0,72.0,68.4,64.0,94,89,74,29.99,29.91,3,1,7,0.15
2013-5-2,76.0,70.2,66.0,71.0,67.7,64.0,94,92,82,29.94,29.79,3,1,10,2.46
2013-5-3,80.0,70.4,66.0,72.0,67.5,64.0,94,91,78,29.81,29.64,8,2,25,2.13
2013-5-4,84.0,73.8,68.0,73.0,69.2,66.0,94,86,63,29.75,29.63,6,1,20,0.14
2013-5-5,81.0,71.4,61.0,68.0,56.4,48.0,93,63,33,29.90,29.71,3,1,10,0.01
2013-5-6,81.0,68.9,59.0,63.0,56.4,52.0,94,67,42,29.96,29.85,3,1,12,0.00
2013-5-7,82.0,67.7,52.0,61.0,56.2,50.0,94,70,44,30.02,29.92,3,1,11,0.00
2013-5-8,85.0,71.8,58.0,65.0,59.9,56.0,94,70,44,30.10,29.98,2,1,8,0.00
2013-5-9,87.0,72.2,58.0,69.0,62.1,56.0,94,73,44,30.12,30.04,3,1,9,0.00
2013-5-10,91.0,74.8,62.0,74.0,65.2,-99.9,94,77,45,30.11,29.96,3,1,9,0.01
2013-5-11,93.0,78.9,67.0,74.0,69.9,65.0,93,76,49,30.02,29.92,4,1,13,0.01
2013-5-12,93.0,79.0,68.0,74.0,67.0,-99.9,93,71,46,30.00,29.90,3,1,11,0.00
2013-5-13,86.0,73.3,61.0,67.0,61.9,55.0,93,70,38,30.10,29.96,3,1,11,0.00
2013-5-14,83.0,68.7,56.0,62.0,56.0,50.0,94,69,35,30.18,30.09,4,1,11,0.00
2013-5-15,84.0,70.6,56.0,66.0,58.9,54.0,94,70,42,30.19,30.07,3,1,10,0.00
2013-5-16,86.0,67.4,59.0,66.0,39.8,-99.9,94,72,46,30.11,30.00,3,1,8,0.00
2013-5-17,88.0,74.3,61.0,70.0,60.0,-99.9,94,75,47,30.08,30.00,4,1,12,0.00
2013-5-18,92.0,77.4,65.0,73.0,68.5,63.0,94,77,43,30.09,29.99,4,1,11,0.00
2013-5-19,89.0,77.6,72.0,75.0,71.4,69.0,93,82,57,30.06,29.98,3,1,11,0.01
2013-5-20,90.0,76.5,69.0,74.0,70.1,67.0,93,82,51,30.06,29.97,4,1,10,0.10
2013-5-21,83.0,73.5,68.0,73.0,70.0,66.0,94,89,67,30.01,29.92,2,0,9,0.95
2013-5-22,88.0,75.1,67.0,74.0,70.5,65.0,94,86,61,29.95,29.88,5,1,12,0.02
2013-5-23,92.0,76.9,67.0,75.0,70.2,65.0,94,82,52,29.97,29.88,2,0,8,0.15
2013-5-24,96.0,79.7,68.0,76.0,68.7,63.0,94,73,35,30.06,29.93,3,1,9,0.02
2013-5-25,84.0,74.6,65.0,71.0,64.9,61.0,94,74,49,30.17,30.04,4,2,12,0.00
2013-5-26,85.0,71.5,57.0,65.0,61.1,55.0,94,72,46,30.19,30.12,3,1,10,0.00
2013-5-27,84.0,73.4,62.0,67.0,64.0,60.0,94,75,54,30.16,30.09,4,2,12,0.00
2013-5-28,88.0,76.7,66.0,73.0,69.2,64.0,93,79,59,30.12,30.05,5,2,14,0.00
2013-5-29,86.0,78.1,71.0,75.0,72.4,69.0,93,83,64,30.11,30.03,5,2,13,0.00
2013-5-30,86.0,77.7,74.0,75.0,72.8,71.0,93,85,67,30.10,30.02,6,2,15,0.12
2013-5-31,85.0,77.4,71.0,75.0,71.6,69.0,93,83,66,30.09,30.02,6,2,15,0.21
2013-6-1,86.0,77.7,73.0,77.0,73.6,71.0,93,87,74,30.05,29.96,5,2,12,0.78
2013-6-2,93.0,79.2,72.0,79.0,72.8,-99.9,94,85,56,30.00,29.85,4,1,11,0.76
2013-6-3,92.0,80.2,73.0,78.0,74.0,71.0,94,83,56,29.97,29.84,3,0,10,0.06
2013-6-4,90.0,78.3,72.0,76.0,72.8,70.0,93,84,58,30.01,29.91,4,1,11,0.09
2013-6-5,85.0,75.1,72.0,77.0,72.3,70.0,94,91,71,30.01,29.89,4,0,9,1.46
2013-6-6,79.0,74.9,72.0,77.0,72.4,70.0,94,92,80,29.89,29.63,5,2,16,2.78
2013-6-7,92.0,80.6,73.0,76.0,73.4,71.0,93,80,60,29.91,29.72,4,2,15,0.03
2013-6-8,92.0,78.0,71.0,79.0,72.6,69.0,94,84,58,30.08,29.91,3,0,11,2.02
2013-6-9,90.0,79.4,70.0,78.0,72.9,68.0,94,82,58,30.09,30.00,3,1,11,0.25
2013-6-10,93.0,81.0,73.0,79.0,74.5,71.0,94,82,56,30.07,29.98,3,1,10,0.02
2013-6-11,94.0,78.4,72.0,79.0,73.7,70.0,94,87,53,30.06,29.98,3,0,8,0.49
2013-6-12,98.0,82.0,69.0,78.0,73.4,67.0,94,77,49,30.05,29.96,3,0,9,0.02
2013-6-13,98.0,84.6,74.0,79.0,74.3,72.0,93,74,46,30.01,29.85,4,1,15,0.01
2013-6-14,95.0,84.2,75.0,77.0,73.2,69.0,92,72,46,29.90,29.80,3,1,10,0.00
2013-6-15,88.0,80.9,75.0,78.0,74.7,72.0,93,82,67,30.05,29.88,5,2,15,0.90
2013-6-16,89.0,80.8,77.0,79.0,75.3,72.0,93,84,70,30.06,30.00,4,1,14,0.69
2013-6-17,90.0,80.7,74.0,81.0,76.2,71.0,93,87,66,30.06,29.94,3,0,11,0.88
2013-6-18,95.0,80.9,71.0,79.0,74.2,69.0,94,82,53,30.05,29.91,3,1,12,1.22
2013-6-19,95.0,82.9,72.0,79.0,74.2,70.0,94,77,50,30.01,29.92,4,1,11,0.46
2013-6-20,91.0,81.1,73.0,79.0,74.4,71.0,93,81,62,30.05,29.98,7,0,15,0.01
2013-6-22,93.0,85.8,78.0,76.0,73.4,71.0,86,68,50,30.09,30.02,3,1,8,0.07
2013-6-23,88.0,79.2,71.0,79.0,74.1,69.0,94,85,65,30.12,30.04,3,1,8,0.09
2013-6-24,90.0,80.7,73.0,78.0,74.0,71.0,94,81,60,30.16,30.06,4,1,10,0.01
2013-6-25,92.0,79.9,71.0,78.0,73.3,69.0,94,81,59,30.14,30.02,4,1,9,0.07
2013-6-26,94.0,81.3,73.0,78.0,74.2,71.0,93,80,56,30.06,29.97,5,1,13,0.05
2013-6-27,96.0,81.9,70.0,77.0,73.0,68.0,94,76,49,30.02,29.90,2,0,8,0.00
2013-6-28,96.0,79.7,73.0,78.0,74.1,70.0,93,84,52,29.94,29.82,3,1,17,1.06
2013-6-29,93.0,80.8,73.0,79.0,74.3,71.0,93,82,58,29.85,29.76,4,1,13,0.33
2013-6-30,93.0,77.8,73.0,79.0,73.7,71.0,94,88,60,29.86,29.78,4,1,13,1.07
2013-7-1,87.0,76.2,73.0,77.0,72.5,71.0,94,89,67,30.00,29.84,5,1,14,0.24
2013-7-2,87.0,76.3,73.0,79.0,73.4,71.0,94,91,75,30.08,29.95,4,0,17,0.67
2013-7-3,88.0,77.7,72.0,79.0,74.2,70.0,94,90,72,30.09,30.03,2,0,9,0.29
2013-7-8,78.0,77.5,77.0,74.0,74.0,74.0,89,88,87,30.13,30.13,0,0,1,0.00
2013-7-9,90.0,80.5,71.0,77.0,72.8,69.0,94,79,57,30.14,30.04,4,1,10,0.00
2013-7-10,92.0,80.2,72.0,76.0,70.1,-99.9,94,76,55,30.07,29.94,4,1,10,0.00
2013-7-11,95.0,81.0,72.0,77.0,73.1,70.0,94,79,46,30.01,29.88,5,1,15,0.03
2013-7-12,92.0,79.8,73.0,80.0,74.1,71.0,94,84,56,29.91,29.85,2,0,7,0.06
2013-7-13,92.0,80.1,73.0,77.0,73.6,71.0,94,82,55,29.97,29.87,5,1,12,0.02
2013-7-14,90.0,77.2,72.0,77.0,73.0,70.0,94,88,62,30.08,29.95,4,1,10,0.19
2013-7-15,87.0,77.4,69.0,77.0,72.4,67.0,95,86,69,30.09,30.00,5,1,12,0.02
2013-7-16,88.0,78.3,73.0,76.0,73.4,71.0,94,86,64,30.13,30.07,6,1,13,0.22
2013-7-17,89.0,78.7,73.0,77.0,74.1,71.0,94,87,64,30.14,30.06,4,1,12,0.39
2013-7-18,87.0,78.0,72.0,77.0,72.7,70.0,94,85,64,30.10,30.02,3,1,11,0.04
2013-7-19,90.0,77.1,72.0,78.0,72.4,70.0,94,87,64,30.11,30.01,3,0,13,1.40
2013-7-20,95.0,78.3,73.0,80.0,72.4,-99.9,94,85,56,30.08,29.98,3,0,9,1.46
2013-7-21,96.0,79.8,72.0,80.0,74.3,70.0,94,85,53,30.09,29.98,2,0,7,0.04
2013-7-22,94.0,79.7,74.0,79.0,74.3,72.0,94,85,57,30.09,30.03,3,1,12,0.03
2013-7-23,90.0,78.8,74.0,79.0,74.4,72.0,94,87,66,30.06,29.92,2,1,11,0.15
2013-7-24,88.0,80.3,75.0,79.0,75.6,73.0,94,86,69,29.96,29.84,3,1,10,0.25
2013-7-25,90.0,81.6,77.0,78.0,75.7,73.0,93,83,65,29.93,29.83,3,1,14,0.01
2013-7-26,94.0,81.5,74.0,79.0,75.6,72.0,94,83,60,29.98,29.91,3,0,8,0.15
2013-7-27,95.0,81.6,74.0,79.0,75.4,72.0,94,83,55,29.96,29.87,3,0,9,1.04
2013-7-28,95.0,78.7,72.0,78.0,73.3,70.0,94,85,52,30.03,29.90,3,0,11,0.91
2013-7-29,93.0,79.7,71.0,78.0,73.7,69.0,95,83,61,30.11,30.00,4,0,9,0.01
2013-7-30,94.0,82.7,74.0,79.0,75.4,72.0,94,80,56,30.14,30.05,3,1,10,0.00
2013-7-31,93.0,81.4,74.0,79.0,75.5,72.0,94,83,60,30.11,29.97,2,0,11,1.93
2013-8-1,94.0,79.3,72.0,77.0,73.6,70.0,94,84,53,30.04,29.93,3,0,9,0.07
2013-8-2,92.0,80.9,72.0,79.0,74.3,70.0,94,82,61,30.00,29.91,3,1,7,0.01
2013-8-3,96.0,80.8,75.0,80.0,74.9,73.0,93,84,53,30.06,29.96,4,1,11,0.29
2013-8-4,95.0,81.9,74.0,81.0,76.0,72.0,94,83,60,30.05,29.94,3,0,9,0.17
2013-8-5,96.0,81.4,76.0,81.0,76.5,74.0,93,86,57,29.98,29.88,2,0,10,0.06
2013-8-6,93.0,82.0,73.0,79.0,75.9,71.0,94,83,63,29.94,29.87,3,1,8,0.04
2013-8-7,92.0,83.7,76.0,79.0,76.6,74.0,94,80,61,29.95,29.89,4,1,9,0.00
2013-8-8,93.0,83.8,76.0,80.0,76.1,74.0,93,79,56,30.02,29.93,3,1,10,0.10
2013-8-9,94.0,82.9,74.0,80.0,75.1,72.0,94,79,56,30.05,29.95,4,1,13,0.01
2013-8-10,96.0,84.2,72.0,79.0,74.9,70.0,94,75,53,30.10,30.01,3,1,9,0.00
2013-8-11,96.0,83.5,74.0,80.0,75.3,72.0,94,78,51,30.13,30.04,3,1,9,0.00
2013-8-12,94.0,81.5,72.0,78.0,73.9,70.0,94,79,54,30.10,29.98,2,0,6,0.00
2013-8-13,99.0,83.4,73.0,78.0,72.0,-99.9,94,73,40,30.03,29.88,2,0,7,0.00
2013-8-14,96.0,80.7,75.0,79.0,74.9,73.0,93,84,56,29.98,29.87,2,0,12,0.91
2013-8-15,97.0,76.9,74.0,79.0,60.7,-99.9,94,75,45,30.01,29.88,3,1,11,0.04
2013-8-16,94.0,80.0,76.0,79.0,71.6,-99.9,93,81,53,30.03,29.92,2,0,5,0.49
2013-8-17,93.0,81.3,77.0,82.0,76.9,75.0,93,87,62,30.06,29.97,2,0,6,0.72
2013-8-18,92.0,82.4,76.0,79.0,74.6,-99.9,93,80,62,30.07,29.98,4,1,10,0.02
2013-8-19,90.0,76.5,75.0,80.0,64.9,-99.9,93,87,66,30.06,29.95,4,0,14,0.97
2013-8-20,93.0,81.4,74.0,80.0,73.5,-99.9,94,81,54,30.07,29.97,5,1,13,0.01
2013-8-21,84.0,78.2,74.0,78.0,75.3,72.0,93,91,83,30.09,30.01,2,0,6,0.53
2013-8-22,89.0,79.4,75.0,80.0,75.9,73.0,94,89,71,30.06,29.96,3,0,9,0.06
2013-8-23,90.0,79.9,74.0,80.0,76.0,72.0,94,88,70,30.00,29.93,4,1,10,0.08
2013-8-24,92.0,78.7,74.0,80.0,74.7,72.0,94,88,63,30.09,29.97,6,1,13,0.16
2013-8-25,86.0,77.4,73.0,78.0,72.7,-99.9,94,88,75,30.13,30.06,2,0,9,0.25
2013-8-26,88.0,80.3,74.0,78.0,75.0,72.0,93,84,67,30.12,30.00,4,1,11,0.02
2013-8-27,89.0,79.1,71.0,76.0,72.2,68.0,93,81,52,30.04,29.97,4,1,12,0.01
2013-8-28,91.0,84.7,75.0,72.0,70.6,69.0,86,64,52,30.01,29.95,3,2,8,0.00
2013-8-29,95.0,81.7,71.0,77.0,71.7,69.0,93,74,45,30.01,29.89,1,0,5,0.00
2013-8-30,96.0,82.9,73.0,79.0,74.4,71.0,93,77,48,29.96,29.85,3,1,9,0.00
2013-8-31,97.0,81.0,73.0,78.0,73.6,71.0,93,80,48,29.94,29.84,3,1,8,1.27
2013-9-1,96.0,78.4,71.0,79.0,71.2,-99.9,94,82,51,29.97,29.86,4,0,21,1.44
2013-9-2,96.0,79.9,72.0,78.0,73.4,70.0,94,82,51,29.98,29.88,3,0,12,0.85
2013-9-3,95.0,82.2,72.0,78.0,73.6,70.0,94,77,51,29.99,29.88,3,0,10,0.01
2013-9-4,94.0,80.3,74.0,79.0,74.7,72.0,93,84,58,30.06,29.95,1,0,9,0.52
2013-9-5,93.0,80.5,72.0,80.0,75.0,70.0,94,84,60,30.07,29.98,3,0,8,0.07
2013-9-6,94.0,78.0,71.0,80.0,73.8,69.0,94,88,55,30.02,29.94,1,0,5,1.70
2013-9-7,90.0,78.4,72.0,79.0,73.0,70.0,94,85,58,29.99,29.90,3,0,8,0.09
2013-9-8,91.0,79.5,73.0,78.0,71.7,-99.9,93,80,60,29.95,29.85,4,1,10,0.01
2013-9-9,91.0,79.9,70.0,76.0,72.0,68.0,93,79,48,30.01,29.91,4,1,10,0.00
2013-9-10,89.0,80.0,72.0,75.0,72.2,70.0,93,79,53,30.07,29.98,5,2,11,0.00
2013-9-11,90.0,80.8,73.0,77.0,73.2,71.0,93,79,55,30.06,29.98,4,1,11,0.00
2013-9-12,91.0,78.5,72.0,79.0,74.0,70.0,93,86,61,30.01,29.86,4,0,10,1.20
2013-9-13,94.0,85.1,76.0,76.0,74.1,72.0,92,72,52,29.83,29.76,3,0,7,0.31
2013-9-14,96.0,82.1,74.0,79.0,74.9,72.0,93,81,51,29.95,29.80,1,0,5,0.16
2013-9-15,85.0,77.2,74.0,79.0,72.4,-99.9,93,88,76,30.05,29.94,2,0,5,0.01
2013-9-16,91.0,80.4,72.0,78.0,73.2,70.0,93,80,53,30.05,29.96,4,1,9,0.00
2013-9-17,89.0,79.4,73.0,77.0,73.5,71.0,93,83,63,30.04,29.94,5,1,14,0.00
2013-9-18,76.0,74.8,74.0,74.0,72.6,71.0,93,92,91,30.01,29.94,2,0,6,0.07
2013-9-19,89.0,77.4,72.0,77.0,72.5,70.0,93,85,61,30.02,29.95,4,1,11,0.47
2013-9-20,89.0,77.3,67.0,74.0,69.9,65.0,94,80,56,30.00,29.89,4,1,11,0.03
2013-9-21,91.0,79.2,69.0,74.0,70.1,67.0,94,76,51,29.92,29.73,2,0,7,0.01
2013-9-22,94.0,78.0,73.0,78.0,71.3,-99.9,93,83,55,29.83,29.71,4,1,11,0.63
2013-9-23,86.0,76.4,74.0,79.0,73.5,72.0,94,91,74,29.93,29.81,2,0,6,1.30
2013-9-24,87.0,76.7,72.0,78.0,73.3,70.0,93,90,71,29.93,29.80,3,1,11,0.52
2013-9-25,84.0,77.6,73.0,74.0,72.9,71.0,93,86,70,29.81,29.74,3,1,10,0.21
2013-9-26,93.0,80.8,73.0,79.0,73.5,67.0,93,80,43,29.84,29.73,3,1,13,0.01
2013-9-27,81.0,74.0,70.0,74.0,71.0,68.0,93,90,78,29.93,29.81,3,0,10,0.04
2013-9-28,83.0,74.9,70.0,77.0,71.1,68.0,94,88,69,29.99,29.88,4,1,11,0.26
2013-9-29,91.0,76.2,68.0,74.0,68.4,-99.9,94,80,52,29.96,29.88,4,1,12,0.01
2013-9-30,91.0,76.4,67.0,74.0,70.0,65.0,94,82,49,29.99,29.88,4,1,12,0.00
2013-10-1,76.0,74.0,72.0,71.0,69.8,69.0,91,87,83,30.04,29.98,0,0,3,0.02
2013-10-2,86.0,76.1,67.0,73.0,69.5,65.0,93,81,63,30.04,29.97,3,1,9,0.01
2013-10-3,89.0,76.8,67.0,76.0,70.3,65.0,94,82,58,30.05,29.96,3,1,11,0.00
2013-10-4,90.0,78.1,69.0,76.0,71.4,67.0,94,81,57,30.05,29.96,3,1,9,0.00
2013-10-5,88.0,77.3,68.0,76.0,71.1,66.0,94,82,60,30.03,29.94,4,1,10,0.00
2013-10-6,92.0,78.0,70.0,77.0,72.4,68.0,94,84,55,29.96,29.83,2,0,9,1.62
2013-10-7,84.0,75.7,71.0,78.0,72.3,69.0,94,90,74,29.87,29.71,2,0,9,2.84
2013-10-8,90.0,78.0,72.0,78.0,73.5,70.0,94,87,63,29.91,29.74,2,1,12,1.70
2013-10-9,83.0,73.7,68.0,72.0,69.5,65.0,93,87,69,30.01,29.89,3,1,11,0.01
2013-10-10,88.0,74.1,66.0,72.0,67.1,64.0,94,80,51,30.03,29.93,3,1,10,0.01
2013-10-11,89.0,73.1,61.0,71.0,64.9,59.0,95,78,47,30.02,29.91,2,0,6,0.01
2013-10-12,88.0,74.9,64.0,72.0,65.2,62.0,94,75,43,30.01,29.93,2,0,9,0.01
2013-10-13,88.0,73.4,63.0,71.0,62.7,-99.9,94,74,45,30.05,29.96,2,0,7,0.00
2013-10-14,88.0,74.9,68.0,71.0,68.3,65.0,93,81,55,30.01,29.91,3,1,10,0.00
2013-10-15,85.0,73.7,68.0,73.0,69.6,66.0,93,87,67,29.97,29.86,1,0,4,0.00
2013-10-16,89.0,75.9,68.0,76.0,70.2,66.0,94,84,52,29.95,29.86,2,0,7,0.01
2013-10-17,90.0,76.9,69.0,75.0,70.4,67.0,94,82,55,29.96,29.86,1,0,5,0.01
2013-10-18,93.0,78.1,68.0,75.0,70.7,66.0,94,80,49,29.96,29.86,2,0,7,0.01
2013-10-19,90.0,79.0,69.0,76.0,71.6,67.0,94,80,55,29.93,29.83,2,0,7,0.00
2013-10-20,88.0,77.0,73.0,76.0,71.3,-99.9,92,84,67,29.95,29.83,2,0,8,0.00
2013-10-21,93.0,79.0,71.0,79.0,73.7,69.0,93,85,57,29.97,29.87,2,0,8,0.27
2013-10-22,92.0,79.9,72.0,77.0,73.0,70.0,93,81,59,29.93,29.77,3,1,10,0.27
2013-10-23,85.0,75.2,65.0,72.0,64.8,55.0,92,72,40,29.98,29.77,3,1,9,0.01
2013-10-24,73.0,65.0,61.0,61.0,56.5,50.0,92,74,62,30.13,29.98,1,0,7,0.00
2013-10-25,82.0,71.9,60.0,62.0,57.6,55.0,94,64,41,30.21,30.12,2,1,7,0.01
2013-10-26,81.0,65.9,55.0,61.0,56.4,53.0,94,75,42,30.19,30.07,2,0,7,0.01
2013-10-27,79.0,63.9,55.0,63.0,54.5,-99.9,95,76,44,30.12,30.03,2,0,8,0.01
2013-10-28,85.0,66.1,54.0,67.0,57.8,-99.9,95,80,49,30.17,30.08,3,0,8,0.01
2013-10-29,83.0,70.8,60.0,71.0,64.4,58.0,95,82,54,30.20,30.12,5,1,13,0.01
2013-10-30,84.0,72.5,64.0,72.0,66.3,62.0,94,82,59,30.20,30.09,4,1,10,0.01
2013-10-31,86.0,72.7,63.0,71.0,66.2,61.0,95,82,54,30.11,29.96,3,0,8,0.00
2013-11-1,89.0,77.0,68.0,73.0,68.8,66.0,93,77,52,29.98,29.83,6,1,19,0.00
2013-11-2,77.0,69.0,62.0,72.0,66.5,60.0,94,91,84,29.94,29.78,2,0,10,0.49
2013-11-3,76.0,64.1,56.0,62.0,54.2,-99.9,95,75,40,30.08,29.92,4,1,12,0.03
2013-11-4,78.0,68.5,60.0,66.0,61.5,57.0,91,79,53,30.14,30.06,6,1,14,0.05
2013-11-5,79.0,70.1,64.0,69.0,66.8,62.0,93,89,72,30.13,30.08,5,1,14,0.20
2013-11-6,79.0,71.3,66.0,72.0,67.6,64.0,93,88,72,30.10,30.02,4,1,10,0.12
2013-11-7,82.0,71.7,65.0,72.0,67.8,63.0,94,88,67,30.03,29.93,1,0,5,0.01
2013-11-8,78.0,67.9,63.0,68.0,63.1,58.0,94,85,72,30.10,29.96,4,1,14,0.01
2013-11-9,79.0,67.6,60.0,67.0,60.1,-99.9,94,80,62,30.16,30.07,4,1,10,0.01
2013-11-10,83.0,70.1,61.0,70.0,64.5,59.0,94,84,59,30.15,30.06,3,0,8,0.00
2013-11-11,81.0,70.2,63.0,70.0,64.5,61.0,94,84,62,30.14,30.05,3,1,10,0.01
2013-11-12,81.0,68.9,62.0,70.0,64.3,60.0,95,86,62,30.09,29.98,2,0,8,0.01
2013-11-13,66.0,61.7,57.0,61.0,54.0,49.0,85,76,65,30.29,30.05,6,3,16,0.01
2013-11-14,74.0,64.0,54.0,61.0,55.5,49.0,94,76,53,30.28,30.15,5,1,12,0.00
2013-11-15,76.0,66.3,57.0,68.0,62.7,55.0,94,89,74,30.17,30.05,2,0,5,0.08
2013-11-16,76.0,69.6,67.0,72.0,66.2,-99.9,94,91,86,30.11,30.01,2,0,5,0.27
2013-11-17,87.0,75.5,68.0,74.0,69.8,66.0,94,84,60,30.06,29.96,2,0,8,0.01
2013-11-18,86.0,75.1,69.0,73.0,69.6,67.0,93,84,63,30.00,29.88,2,0,10,0.00
2013-11-19,77.0,70.7,66.0,69.0,64.7,60.0,93,82,60,29.95,29.85,2,1,11,0.00
2013-11-20,79.0,71.3,66.0,72.0,67.8,63.0,93,89,75,30.09,29.94,5,1,13,0.25
2013-11-21,77.0,71.5,69.0,72.0,68.9,67.0,93,91,84,30.17,30.07,4,1,11,0.23
2013-11-22,80.0,72.4,66.0,71.0,67.9,64.0,93,86,69,30.18,30.09,3,1,10,0.01
2013-11-23,86.0,71.2,62.0,70.0,63.6,-99.9,95,81,52,30.09,29.97,2,0,6,0.00
2013-11-24,71.0,65.2,62.0,66.0,59.4,54.0,93,82,70,30.22,30.00,6,2,19,0.00
2013-11-25,75.0,66.9,60.0,63.0,58.4,54.0,87,74,59,30.23,30.07,5,2,14,0.00
2013-11-26,83.0,74.5,67.0,73.0,69.6,63.0,93,85,71,30.07,29.71,5,2,16,0.24
2013-11-27,75.0,63.3,44.0,72.0,57.7,37.0,93,82,61,30.18,29.66,4,2,14,0.27
2013-11-28,66.0,51.2,38.0,54.0,44.7,34.0,90,79,62,30.32,30.18,4,2,11,0.03
2013-11-29,72.0,59.0,51.0,62.0,54.3,49.0,94,85,70,30.35,30.26,4,2,14,0.00
2013-11-30,77.0,64.7,58.0,66.0,59.3,-99.9,94,86,64,30.29,30.16,4,1,11,0.03
2013-12-1,75.0,65.5,62.0,67.0,62.7,60.0,94,91,77,30.16,29.95,2,0,8,0.02
2013-12-2,76.0,64.5,57.0,64.0,59.4,54.0,94,85,55,29.95,29.78,2,0,8,0.00
2013-12-3,80.0,65.0,53.0,62.0,58.5,52.0,96,81,53,29.97,29.86,2,0,7,0.00
2013-12-4,84.0,69.5,59.0,70.0,63.3,57.0,95,82,57,30.06,29.95,2,0,11,0.00
2013-12-5,84.0,70.7,60.0,70.0,64.9,58.0,95,83,58,30.15,30.06,2,0,7,0.00
2013-12-6,86.0,72.5,63.0,73.0,67.3,61.0,94,85,60,30.16,30.06,3,0,11,0.00
2013-12-7,87.0,72.7,63.0,70.0,64.0,-99.9,94,78,48,30.21,30.11,2,0,6,0.00
2013-12-8,84.0,71.0,61.0,73.0,65.6,59.0,95,84,58,30.21,30.08,3,0,9,0.01
2013-12-9,86.0,72.2,62.0,73.0,66.0,60.0,95,83,54,30.17,30.06,3,0,8,0.01
2013-12-10,86.0,73.1,60.0,72.0,65.4,58.0,94,79,51,30.17,30.03,3,1,11,0.00
2013-12-11,83.0,68.6,59.0,70.0,62.6,55.0,91,82,65,30.22,30.12,3,1,10,0.00
2013-12-12,70.0,60.9,52.0,60.0,51.1,37.0,93,73,36,30.30,30.17,4,2,13,0.00
2013-12-13,74.0,59.6,48.0,59.0,53.0,46.0,94,81,54,30.25,30.11,4,1,11,0.00
2013-12-14,82.0,69.5,58.0,73.0,64.2,-99.9,94,86,70,30.11,29.90,2,1,10,0.01
2013-12-15,73.0,67.7,59.0,71.0,63.4,56.0,93,86,72,30.09,29.84,4,1,14,0.05
2013-12-16,66.0,54.6,46.0,57.0,48.4,43.0,93,81,56,30.21,30.08,2,1,8,0.01
2013-12-17,75.0,55.1,44.0,57.0,49.0,43.0,95,83,53,30.23,30.13,2,0,7,0.00
2013-12-18,72.0,54.4,44.0,49.0,45.7,42.0,95,76,42,30.26,30.17,3,0,8,0.01
2013-12-19,77.0,56.8,42.0,61.0,50.6,40.0,96,82,49,30.26,30.16,2,0,7,0.01
2013-12-20,82.0,64.8,49.0,65.0,58.0,48.0,96,81,54,30.20,30.08,3,0,9,0.01
2013-12-21,84.0,70.8,60.0,73.0,65.1,-99.9,94,85,63,30.13,30.02,3,1,11,0.00
2013-12-22,86.0,74.1,65.0,74.0,68.4,63.0,94,84,60,30.12,30.05,3,1,11,0.01
2013-12-23,86.0,74.2,65.0,74.0,68.2,63.0,94,83,59,30.14,30.04,4,1,13,0.01
2013-12-31,58.0,58.0,58.0,55.0,55.0,55.0,89,89,89,30.24,30.23,1,0,4,0.00
2014-1-1,66.0,61.4,58.0,64.0,59.2,55.0,94,93,89,30.23,30.04,3,1,9,0.06
2014-1-2,81.0,68.4,62.0,72.0,65.6,57.0,95,91,74,30.04,29.78,4,1,16,0.28